Time;durP1;ratioP1;P1;durP2;ratioP2;P2;SDS_P1;SDS_P2;PMS_P1;PMS_P2;Temp;Humidity;BMP_temperature;BMP_pressure;BME280_temperature;BME280_humidity;BME280_pressure;Samples;Min_cycle;Max_cycle;Signal;HPM_P1;HPM_P2
2022/04/04 00:00:12;;;;;;;7.27;4.00;;;;;;;1.28;51.75;100535.75;1697072;84;21146;-70
2022/04/04 00:02:41;;;;;;;8.93;4.37;;;;;;;1.34;51.79;100538.78;1696863;84;21035;-70
2022/04/04 00:05:09;;;;;;;9.07;4.10;;;;;;;1.38;51.78;100525.44;1697136;84;21047;-70
2022/04/04 00:07:36;;;;;;;9.70;4.60;;;;;;;1.40;51.81;100521.15;1697113;84;21070;-70
2022/04/04 00:10:04;;;;;;;7.37;4.30;;;;;;;1.43;51.80;100520.72;1697036;84;21090;-70
2022/04/04 00:12:31;;;;;;;8.00;4.23;;;;;;;1.47;51.89;100522.47;1668022;86;22339;-70
2022/04/04 00:14:59;;;;;;;5.50;3.80;;;;;;;1.49;52.07;100518.14;1696828;84;21042;-70
2022/04/04 00:17:26;;;;;;;9.73;3.77;;;;;;;1.53;52.02;100519.03;1697292;84;21019;-70
2022/04/04 00:19:53;;;;;;;7.53;3.70;;;;;;;1.56;52.20;100522.91;1697099;84;21051;-70
2022/04/04 00:22:20;;;;;;;6.00;3.60;;;;;;;1.62;52.18;100513.01;1697168;84;21298;-71
2022/04/04 00:24:47;;;;;;;8.33;3.50;;;;;;;1.65;52.25;100513.87;1697099;84;21489;-71
2022/04/04 00:27:14;;;;;;;6.37;3.13;;;;;;;1.69;52.39;100505.27;1696966;84;21023;-70
2022/04/04 00:29:42;;;;;;;5.97;3.67;;;;;;;1.74;52.47;100511.72;1697138;84;21031;-71
2022/04/04 00:32:09;;;;;;;9.37;4.03;;;;;;;1.77;52.44;100511.31;1697227;84;21456;-70
2022/04/04 00:34:37;;;;;;;5.70;3.10;;;;;;;1.81;52.50;100514.75;1696996;84;21012;-70
2022/04/04 00:37:05;;;;;;;5.20;3.40;;;;;;;1.84;52.59;100513.45;1697324;84;21074;-70
2022/04/04 00:39:32;;;;;;;5.23;3.50;;;;;;;1.86;52.71;100506.58;1696992;84;21097;-71
2022/04/04 00:42:00;;;;;;;4.17;2.97;;;;;;;1.90;52.72;100512.59;1697340;84;21019;-70
2022/04/04 00:44:27;;;;;;;6.10;3.43;;;;;;;1.91;52.87;100510.03;1697145;84;21031;-70
2022/04/04 00:46:54;;;;;;;9.90;3.60;;;;;;;1.92;52.86;100503.98;1697075;84;21040;-70
2022/04/04 00:49:21;;;;;;;5.37;3.20;;;;;;;1.92;52.96;100500.11;1697133;84;21271;-70
2022/04/04 00:51:48;;;;;;;4.77;3.00;;;;;;;1.94;53.00;100500.09;1696966;84;21015;-70
2022/04/04 00:54:16;;;;;;;6.83;3.27;;;;;;;1.95;53.05;100503.98;1697283;84;21019;-71
2022/04/04 00:56:45;;;;;;;4.83;3.13;;;;;;;1.97;53.28;100498.82;1668014;86;21051;-71
2022/04/04 00:59:16;;;;;;;5.80;3.00;;;;;;;1.99;53.40;100499.22;1697275;84;21051;-70
2022/04/04 01:01:44;;;;;;;4.93;2.97;;;;;;;2.01;53.51;100488.45;1697002;84;21156;-71
2022/04/04 01:04:13;;;;;;;5.87;2.90;;;;;;;2.01;53.59;100496.22;1696936;84;21497;-70
2022/04/04 01:06:41;;;;;;;6.67;2.90;;;;;;;2.03;53.59;100491.49;1697201;84;21027;-70
2022/04/04 01:09:08;;;;;;;6.47;3.10;;;;;;;2.02;53.62;100489.31;1697192;84;22018;-70
2022/04/04 01:11:36;;;;;;;4.37;3.10;;;;;;;2.01;53.71;100489.75;1696982;84;21047;-70
2022/04/04 01:14:03;;;;;;;9.20;3.30;;;;;;;2.01;53.70;100487.16;1697007;84;22000;-71
2022/04/04 01:16:30;;;;;;;6.97;3.37;;;;;;;1.99;53.77;100490.61;1696840;84;21015;-70
2022/04/04 01:18:58;;;;;;;4.00;2.60;;;;;;;1.97;53.88;100480.73;1697161;84;21015;-70
2022/04/04 01:21:25;;;;;;;5.23;2.90;;;;;;;1.97;54.02;100482.02;1697019;84;21464;-70
2022/04/04 01:23:56;;;;;;;5.27;3.13;;;;;;;1.97;54.15;100478.14;1697058;84;21026;-71
2022/04/04 01:26:23;;;;;;;5.75;3.17;;;;;;;1.96;54.28;100473.38;1697271;84;27875;-71
2022/04/04 01:28:51;;;;;;;3.93;2.67;;;;;;;1.98;54.36;100474.68;1697077;84;21015;-70
2022/04/04 01:31:18;;;;;;;7.43;3.40;;;;;;;1.99;54.50;100473.80;1697225;84;21071;-70
2022/04/04 01:33:46;;;;;;;4.30;2.70;;;;;;;2.00;54.67;100472.53;1697138;84;21533;-70
2022/04/04 01:36:13;;;;;;;6.93;3.03;;;;;;;2.02;54.74;100467.34;1697267;84;21077;-70
2022/04/04 01:38:40;;;;;;;6.07;3.20;;;;;;;2.06;54.83;100463.91;1697120;84;21190;-70
2022/04/04 01:41:07;;;;;;;5.77;3.10;;;;;;;2.08;55.01;100460.00;1697272;84;20997;-70
2022/04/04 01:43:35;;;;;;;4.90;2.90;;;;;;;2.11;55.18;100455.72;1696973;84;21023;-70
2022/04/04 01:48:48;;;;;;;6.00;3.00;;;;;;;2.18;55.19;100466.45;1697071;84;21047;-71
2022/04/04 01:51:15;;;;;;;4.30;2.40;;;;;;;2.21;55.48;100452.22;1697121;84;21148;-71
2022/04/04 01:53:42;;;;;;;4.83;3.00;;;;;;;2.26;55.47;100455.25;1697325;84;21008;-71
2022/04/04 01:56:09;;;;;;;4.90;3.10;;;;;;;2.29;55.52;100463.85;1696958;84;21023;-71
2022/04/04 01:58:37;;;;;;;4.27;2.80;;;;;;;2.30;55.61;100458.24;1697271;84;21023;-71
2022/04/04 02:01:20;;;;;;;5.67;2.57;;;;;;;2.32;55.94;100462.55;1697037;84;21047;-71
2022/04/04 02:03:49;;;;;;;7.53;3.20;;;;;;;2.29;56.17;100463.00;1697097;83;21955;-71
2022/04/04 02:06:21;;;;;;;5.53;3.70;;;;;;;2.24;56.36;100460.41;1696920;84;21043;-71
2022/04/04 02:08:47;;;;;;;6.30;3.50;;;;;;;2.14;57.33;100457.00;1696517;84;21032;-71
2022/04/04 02:11:18;;;;;;;7.03;3.60;;;;;;;2.04;57.85;100454.42;1696911;84;21051;-71
2022/04/04 02:13:45;;;;;;;4.67;3.70;;;;;;;1.93;58.40;100449.27;1697374;84;21284;-71
2022/04/04 02:16:13;;;;;;;6.93;4.00;;;;;;;1.78;59.08;100455.31;1696963;84;21147;-71
2022/04/04 02:18:41;;;;;;;7.47;4.23;;;;;;;1.66;60.02;100447.11;1697224;84;21020;-71
2022/04/04 02:21:09;;;;;;;7.50;4.13;;;;;;;1.55;60.39;100447.13;1697128;84;21079;-71
2022/04/04 02:23:38;;;;;;;6.90;3.87;;;;;;;1.43;60.85;100450.13;1697132;84;21039;-72
2022/04/04 02:26:05;;;;;;;9.70;4.30;;;;;;;1.32;61.16;100434.17;1697047;84;21043;-72
2022/04/04 02:28:32;;;;;;;6.27;3.97;;;;;;;1.25;61.65;100444.52;1697316;84;21132;-72
2022/04/04 02:31:00;;;;;;;5.63;4.20;;;;;;;1.21;62.26;100440.19;1697101;84;21003;-73
2022/04/04 02:33:27;;;;;;;5.93;4.23;;;;;;;1.19;62.39;100437.63;1668143;86;21059;-73
2022/04/04 02:35:54;;;;;;;6.27;4.40;;;;;;;1.17;62.53;100432.03;1696982;84;21046;-73
2022/04/04 02:38:28;;;;;;;7.43;4.53;;;;;;;1.16;62.68;100433.72;1697213;84;21067;-72
2022/04/04 02:40:57;;;;;;;6.47;3.83;;;;;;;1.18;62.80;100436.31;1696993;84;21139;-72
2022/04/04 02:43:24;;;;;;;5.93;3.87;;;;;;;1.17;62.74;100433.31;1697211;84;21031;-72
2022/04/04 02:45:55;;;;;;;8.77;3.80;;;;;;;1.16;62.82;100426.41;1696975;84;21534;-72
2022/04/04 02:48:23;;;;;;;5.17;3.57;;;;;;;1.15;62.68;100425.55;1697167;84;21011;-72
2022/04/04 02:50:52;;;;;;;6.83;3.83;;;;;;;1.15;62.92;100424.27;1696946;84;21541;-72
2022/04/04 02:53:19;;;;;;;6.13;4.10;;;;;;;1.15;62.83;100428.14;1697142;84;21054;-72
2022/04/04 02:58:31;;;;;;;4.60;3.90;;;;;;;1.13;63.14;100422.53;1697328;84;21020;-72
2022/04/04 03:00:58;;;;;;;5.03;3.37;;;;;;;1.13;62.97;100422.10;1697024;84;21039;-72
2022/04/04 03:03:28;;;;;;;6.20;3.47;;;;;;;1.14;63.16;100420.37;1696926;83;21028;-72
2022/04/04 03:05:55;;;;;;;6.43;3.67;;;;;;;1.15;63.09;100418.24;1697102;84;21203;-71
2022/04/04 03:08:22;;;;;;;6.37;3.77;;;;;;;1.16;63.07;100427.27;1697160;84;21560;-72
2022/04/04 03:10:49;;;;;;;5.57;3.23;;;;;;;1.20;63.18;100427.72;1696997;84;21094;-72
2022/04/04 03:13:16;;;;;;;4.30;3.03;;;;;;;1.20;63.11;100423.84;1696963;84;21032;-72
2022/04/04 03:15:43;;;;;;;6.50;3.37;;;;;;;1.23;63.22;100429.02;1696906;84;21054;-71
2022/04/04 03:18:10;;;;;;;7.50;4.17;;;;;;;1.26;63.24;100420.41;1696940;84;21101;-72
2022/04/04 03:20:39;;;;;;;6.60;3.07;;;;;;;1.27;63.18;100419.10;1667895;86;21487;-72
2022/04/04 03:23:06;;;;;;;3.23;2.87;;;;;;;1.31;63.18;100417.41;1667842;86;21110;-72
2022/04/04 03:25:34;;;;;;;6.37;3.20;;;;;;;1.32;63.23;100422.99;1697182;84;21027;-71
2022/04/04 03:28:02;;;;;;;4.10;3.23;;;;;;;1.35;63.23;100419.12;1667859;86;21492;-72
2022/04/04 03:30:29;;;;;;;4.87;3.43;;;;;;;1.37;63.28;100423.01;1667917;86;21809;-72
2022/04/04 03:32:57;;;;;;;5.50;3.10;;;;;;;1.38;63.13;100420.41;1696826;84;21082;-72
2022/04/04 03:35:28;;;;;;;4.43;3.10;;;;;;;1.39;63.12;100422.59;1696942;84;21031;-71
2022/04/04 03:37:59;;;;;;;4.43;3.30;;;;;;;1.38;63.02;100420.41;1696944;84;21004;-71
2022/04/04 03:40:27;;;;;;;6.03;3.47;;;;;;;1.38;63.08;100415.25;1697308;84;21497;-71
2022/04/04 03:42:57;;;;;;;4.17;3.07;;;;;;;1.38;63.07;100414.39;1697032;84;21101;-71
2022/04/04 03:45:24;;;;;;;5.45;3.27;;;;;;;1.37;63.07;100414.83;1697214;84;21031;-72
2022/04/04 03:47:54;;;;;;;4.77;3.47;;;;;;;1.39;63.11;100411.82;1696906;84;21015;-71
2022/04/04 03:50:24;;;;;;;5.57;3.03;;;;;;;1.38;62.99;100410.08;1667836;86;21031;-72
2022/04/04 03:52:53;;;;;;;5.63;3.50;;;;;;;1.37;62.96;100407.08;1696972;84;21035;-73
2022/04/04 03:55:28;;;;;;;6.93;3.70;;;;;;;1.37;62.92;100410.95;1696878;84;21328;-71
2022/04/04 03:57:55;;;;;;;8.80;3.17;;;;;;;1.39;62.96;100408.38;1667797;86;20960;-71
2022/04/04 04:00:24;;;;;;;4.37;3.40;;;;;;;1.38;62.86;100415.25;1697022;84;21555;-71
2022/04/04 04:02:52;;;;;;;4.03;3.30;;;;;;;1.38;62.94;100404.06;1696881;84;21576;-72
2022/04/04 04:05:20;;;;;;;5.23;3.53;;;;;;;1.38;62.89;100403.63;1667835;86;21019;-71
2022/04/04 04:07:48;;;;;;;7.50;4.30;;;;;;;1.38;62.90;100398.89;1696769;84;21968;-71
2022/04/04 04:10:16;;;;;;;6.23;3.60;;;;;;;1.39;62.86;100396.77;1667788;86;21067;-73
2022/04/04 04:12:44;;;;;;;5.17;3.60;;;;;;;1.39;62.85;100400.64;1696917;84;21524;-71
2022/04/04 04:15:15;;;;;;;6.43;3.73;;;;;;;1.40;63.01;100401.91;1697123;84;21035;-71
2022/04/04 04:17:43;;;;;;;5.67;3.83;;;;;;;1.42;63.01;100399.34;1696934;84;21066;-70
2022/04/04 04:20:21;;;;;;;6.63;3.93;;;;;;;1.42;63.02;100391.16;1697131;84;21211;-71
2022/04/04 04:22:58;;;;;;;5.57;3.20;;;;;;;1.45;62.97;100396.75;1696851;84;21012;-71
2022/04/04 04:25:29;;;;;;;4.27;3.50;;;;;;;1.43;62.84;100395.45;1697163;84;21016;-71
2022/04/04 04:28:00;;;;;;;5.50;4.03;;;;;;;1.42;62.89;100397.61;1676658;84;21541;-71
2022/04/04 04:30:29;;;;;;;6.77;3.73;;;;;;;1.42;62.90;100395.47;1700642;84;21049;-72
2022/04/04 04:32:56;;;;;;;4.90;3.60;;;;;;;1.39;62.89;100392.45;1700395;84;21270;-71
2022/04/04 04:35:25;;;;;;;6.60;4.37;;;;;;;1.38;62.80;100393.73;1700383;84;21059;-71
2022/04/04 04:37:52;;;;;;;5.33;4.13;;;;;;;1.37;62.93;100395.89;1700388;84;21067;-71
2022/04/04 04:40:20;;;;;;;6.20;4.00;;;;;;;1.37;62.83;100401.06;1700777;84;21035;-71
2022/04/04 04:42:49;;;;;;;6.90;4.30;;;;;;;1.35;63.11;100404.91;1700459;84;21043;-76
2022/04/04 04:45:17;;;;;;;7.23;4.63;;;;;;;1.35;63.34;100394.59;1700423;84;21552;-71
2022/04/04 04:47:44;;;;;;;7.70;4.67;;;;;;;1.37;63.72;100401.06;1700311;84;21540;-73
2022/04/04 04:50:14;;;;;;;5.03;4.30;;;;;;;1.39;63.43;100395.03;1700386;84;20992;-71
2022/04/04 04:52:42;;;;;;;5.80;4.37;;;;;;;1.38;63.24;100391.14;1700495;84;21000;-71
2022/04/04 04:55:10;;;;;;;6.27;4.27;;;;;;;1.38;63.10;100388.56;1700403;84;21013;-71
2022/04/04 04:57:38;;;;;;;7.33;4.30;;;;;;;1.36;63.08;100396.33;1700369;84;21369;-71
2022/04/04 05:00:08;;;;;;;9.13;4.77;;;;;;;1.34;63.14;100385.98;1700364;84;21000;-72
2022/04/04 05:02:35;;;;;;;5.62;4.03;;;;;;;1.34;63.12;100387.71;1700299;84;21437;-71
2022/04/04 05:05:08;;;;;;;6.93;4.40;;;;;;;1.33;63.17;100392.02;1690271;84;21024;-71
2022/04/04 05:07:33;;;;;;;7.28;4.00;;;;;;;1.34;63.12;100396.75;1689343;84;21497;-71
2022/04/04 05:10:01;;;;;;;7.27;4.30;;;;;;;1.33;63.21;100397.19;1675584;85;21202;-71
2022/04/04 05:12:28;;;;;;;6.47;4.03;;;;;;;1.34;63.18;100400.63;1690306;84;21024;-70
2022/04/04 05:14:55;;;;;;;6.47;4.20;;;;;;;1.35;63.17;100398.46;1675621;85;21445;-71
2022/04/04 05:17:23;;;;;;;6.43;4.10;;;;;;;1.36;63.17;100400.61;1690415;84;21040;-71
2022/04/04 05:19:51;;;;;;;7.07;4.10;;;;;;;1.38;63.13;100388.56;1675690;85;21028;-71
2022/04/04 05:22:19;;;;;;;6.20;4.37;;;;;;;1.40;63.22;100393.31;1690418;84;21044;-72
2022/04/04 05:24:47;;;;;;;5.90;4.30;;;;;;;1.42;63.25;100392.89;1675679;85;21038;-76
2022/04/04 05:27:14;;;;;;;4.70;3.60;;;;;;;1.43;63.25;100381.69;1690566;84;20917;-71
2022/04/04 05:29:41;;;;;;;5.80;4.20;;;;;;;1.48;63.35;100391.16;1675810;85;20935;-71
2022/04/04 05:32:08;;;;;;;6.03;4.20;;;;;;;1.51;63.38;100384.69;1690570;84;21044;-71
2022/04/04 05:34:36;;;;;;;9.17;5.23;;;;;;;1.57;63.33;100385.12;1675795;85;21201;-70
2022/04/04 05:37:04;;;;;;;6.53;4.57;;;;;;;1.63;63.39;100382.95;1690490;84;21485;-71
2022/04/04 05:39:31;;;;;;;6.53;4.53;;;;;;;1.70;63.41;100388.56;1675680;85;21554;-71
2022/04/04 05:41:58;;;;;;;7.60;4.57;;;;;;;1.75;63.36;100388.13;1690623;84;21462;-73
2022/04/04 05:44:26;;;;;;;5.43;4.60;;;;;;;1.80;63.32;100386.37;1675731;85;21568;-70
2022/04/04 05:46:54;;;;;;;6.73;5.03;;;;;;;1.84;63.25;100392.42;1690250;84;21157;-71
2022/04/04 05:49:21;;;;;;;8.47;5.03;;;;;;;1.86;63.16;100385.50;1675672;85;21059;-71
2022/04/04 05:51:49;;;;;;;7.33;4.53;;;;;;;1.90;63.21;100387.23;1690175;84;21043;-71
2022/04/04 05:54:16;;;;;;;7.17;4.70;;;;;;;1.96;63.12;100390.66;1675678;85;21034;-71
2022/04/04 05:56:44;;;;;;;8.57;5.10;;;;;;;2.00;63.10;100391.53;1690521;84;21498;-71
2022/04/04 05:59:15;;;;;;;6.20;4.37;;;;;;;2.03;63.07;100387.64;1675660;85;21999;-71
2022/04/04 06:01:42;;;;;;;;;;;;;;;2.10;63.01;100388.48;1692738;84;21116;-72
2022/04/04 06:04:12;;;;;;;8.33;4.80;;;;;;;2.15;62.94;100391.91;1643446;86;20147;-71
2022/04/04 06:06:39;;;;;;;6.47;4.80;;;;;;;2.20;62.97;100390.18;1700885;84;21067;-71
2022/04/04 06:09:08;;;;;;;7.23;5.10;;;;;;;2.25;62.97;100387.16;1700608;84;21315;-71
2022/04/04 06:11:35;;;;;;;6.80;5.23;;;;;;;2.30;62.83;100384.12;1700747;84;22282;-71
2022/04/04 06:14:03;;;;;;;6.23;4.70;;;;;;;2.38;62.78;100397.00;1700521;84;21020;-71
2022/04/04 06:16:30;;;;;;;6.13;4.90;;;;;;;2.44;62.75;100381.05;1700454;84;21008;-71
2022/04/04 06:18:59;;;;;;;6.67;5.13;;;;;;;2.53;62.72;100390.49;1700605;84;21051;-71
2022/04/04 06:21:27;;;;;;;7.73;4.87;;;;;;;2.58;62.58;100391.33;1700599;84;21027;-71
2022/04/04 06:23:55;;;;;;;7.20;4.70;;;;;;;2.64;62.58;100383.98;1700569;84;21332;-72
2022/04/04 06:26:23;;;;;;;7.43;4.77;;;;;;;2.70;62.48;100377.91;1700332;84;21102;-71
2022/04/04 06:28:49;;;;;;;7.17;4.63;;;;;;;2.77;62.50;100379.58;1700716;84;21485;-72
2022/04/04 06:31:16;;;;;;;6.93;4.60;;;;;;;2.85;62.44;100382.54;1700680;84;21012;-72
2022/04/04 06:33:44;;;;;;;7.13;4.70;;;;;;;2.93;62.44;100379.06;1700554;84;21141;-72
2022/04/04 06:36:11;;;;;;;6.80;4.97;;;;;;;3.01;62.28;100373.41;1700488;84;21231;-70
2022/04/04 06:38:37;;;;;;;6.77;4.97;;;;;;;3.09;62.21;100376.80;1700312;84;20956;-70
2022/04/04 06:41:04;;;;;;;6.23;4.53;;;;;;;3.17;62.18;100375.46;1700559;84;21039;-71
2022/04/04 06:43:32;;;;;;;7.40;4.90;;;;;;;3.24;61.98;100369.34;1700584;84;21004;-72
2022/04/04 06:46:00;;;;;;;6.37;4.60;;;;;;;3.31;61.97;100371.03;1700758;84;21484;-71
2022/04/04 06:48:27;;;;;;;6.47;4.57;;;;;;;3.39;61.89;100372.27;1700418;84;21313;-76
2022/04/04 06:50:54;;;;;;;7.67;5.00;;;;;;;3.45;61.80;100365.30;1700928;83;21501;-74
2022/04/04 06:53:21;;;;;;;8.13;4.90;;;;;;;3.52;61.79;100371.27;1713402;83;21070;-73
2022/04/04 06:55:49;;;;;;;7.50;5.37;;;;;;;3.60;61.69;100363.44;1697129;83;21491;-75
2022/04/04 06:58:16;;;;;;;7.37;4.83;;;;;;;3.67;61.47;100362.52;1701346;83;21509;-74
2022/04/04 07:00:45;;;;;;;5.90;4.93;;;;;;;3.72;61.44;100360.30;1700456;84;21568;-73
2022/04/04 07:03:11;;;;;;;6.30;4.53;;;;;;;3.80;61.36;100357.20;1700340;84;21489;-76
2022/04/04 07:05:38;;;;;;;7.50;5.23;;;;;;;3.85;61.13;100353.24;1699891;84;21078;-73
2022/04/04 07:08:07;;;;;;;5.67;4.87;;;;;;;3.92;61.17;100359.25;1700174;84;21011;-74
2022/04/04 07:10:35;;;;;;;5.87;4.90;;;;;;;3.97;61.02;100351.84;1700120;84;21042;-72
2022/04/04 07:13:01;;;;;;;7.77;4.70;;;;;;;4.00;61.00;100346.61;1699773;84;21166;-73
2022/04/04 07:15:29;;;;;;;7.03;4.77;;;;;;;4.08;60.86;100337.91;1700026;84;21027;-74
2022/04/04 07:17:56;;;;;;;5.63;4.30;;;;;;;4.13;60.63;100339.56;1699972;84;21451;-73
2022/04/04 07:20:23;;;;;;;9.10;4.77;;;;;;;4.21;60.69;100344.23;1700155;84;21043;-75
2022/04/04 07:22:51;;;;;;;6.60;5.43;;;;;;;4.27;60.47;100341.11;1700081;84;21282;-73
2022/04/04 07:25:18;;;;;;;6.50;5.10;;;;;;;4.34;60.40;100355.30;1700234;84;21805;-73
2022/04/04 07:27:46;;;;;;;6.70;4.60;;;;;;;4.35;59.99;100330.20;1702651;83;21059;-74
2022/04/04 07:30:17;;;;;;;7.10;5.40;;;;;;;4.38;59.95;100342.72;1700141;84;21047;-74
2022/04/04 07:32:50;;;;;;;6.10;4.67;;;;;;;4.43;59.89;100346.13;1699884;84;37525;-74
2022/04/04 07:35:18;;;;;;;5.50;4.50;;;;;;;4.51;59.71;100334.31;1700019;84;21039;-74
2022/04/04 07:37:48;;;;;;;6.00;4.10;;;;;;;4.57;59.54;100329.06;1700046;84;21814;-77
2022/04/04 07:40:18;;;;;;;5.70;4.40;;;;;;;4.61;59.34;100323.39;1699884;84;21095;-71
2022/04/04 07:42:46;;;;;;;;;;;;;;;4.67;59.08;100318.95;1702429;84;21023;-71
2022/04/04 07:45:19;;;;;;;7.23;4.50;;;;;;;4.70;58.90;100319.35;1699992;84;20174;-71
2022/04/04 07:47:47;;;;;;;5.57;4.50;;;;;;;4.75;58.69;100305.02;1700301;84;21480;-71
2022/04/04 07:50:15;;;;;;;4.90;3.53;;;;;;;4.80;58.44;100316.20;1699868;84;22046;-71
2022/04/04 07:52:42;;;;;;;6.27;4.47;;;;;;;4.83;58.19;100297.52;1699844;84;21575;-71
2022/04/04 07:55:10;;;;;;;6.23;4.27;;;;;;;4.90;57.96;100304.77;1699969;84;21003;-71
2022/04/04 07:57:38;;;;;;;6.47;4.03;;;;;;;4.98;58.05;100295.13;1700156;84;21481;-72
2022/04/04 08:00:08;;;;;;;5.93;4.17;;;;;;;5.08;57.74;100301.89;1699913;84;21023;-71
2022/04/04 08:02:35;;;;;;;5.10;3.70;;;;;;;5.13;57.23;100296.19;1700283;84;21114;-74
2022/04/04 08:05:04;;;;;;;4.20;3.43;;;;;;;5.20;57.17;100288.28;1683848;84;21027;-72
2022/04/04 08:07:31;;;;;;;4.67;3.97;;;;;;;5.33;56.92;100276.80;1673463;84;21023;-71
2022/04/04 08:09:58;;;;;;;7.20;4.20;;;;;;;5.42;56.20;100276.62;1673469;85;21035;-71
2022/04/04 08:12:27;;;;;;;6.70;4.30;;;;;;;5.42;56.16;100273.17;1673340;85;21567;-71
2022/04/04 08:14:54;;;;;;;5.17;3.87;;;;;;;5.53;56.26;100268.64;1673479;85;22064;-71
2022/04/04 08:17:22;;;;;;;5.03;4.10;;;;;;;5.71;56.36;100271.33;1673365;85;21039;-70
2022/04/04 08:19:50;;;;;;;5.07;3.90;;;;;;;5.88;56.25;100264.52;1673344;85;21456;-71
2022/04/04 08:22:18;;;;;;;4.40;3.60;;;;;;;5.99;55.87;100251.73;1673423;84;21545;-70
2022/04/04 08:24:45;;;;;;;4.80;3.70;;;;;;;6.10;54.89;100257.17;1673624;85;21358;-71
2022/04/04 08:27:13;;;;;;;4.67;3.70;;;;;;;6.11;54.87;100251.91;1673486;84;21146;-71
2022/04/04 08:29:40;;;;;;;5.10;3.67;;;;;;;6.14;54.61;100253.15;1673422;84;21099;-71
2022/04/04 08:32:08;;;;;;;5.47;3.63;;;;;;;6.14;54.30;100244.48;1673501;84;21133;-72
2022/04/04 08:34:36;;;;;;;5.00;4.00;;;;;;;6.17;54.09;100243.97;1673931;84;21039;-72
2022/04/04 08:37:03;;;;;;;6.03;4.63;;;;;;;6.15;53.85;100252.70;1673476;85;21055;-71
2022/04/04 08:39:30;;;;;;;8.33;4.70;;;;;;;6.12;53.36;100235.40;1673542;84;22039;-71
2022/04/04 08:41:58;;;;;;;6.00;4.00;;;;;;;6.17;53.85;100248.33;1673418;85;21043;-71
2022/04/04 08:44:25;;;;;;;4.70;4.20;;;;;;;6.24;53.28;100235.16;1673655;84;20998;-70
2022/04/04 08:46:52;;;;;;;6.40;3.70;;;;;;;6.21;53.15;100229.17;1673419;85;21004;-72
2022/04/04 08:49:20;;;;;;;4.80;3.83;;;;;;;6.16;52.78;100229.26;1673786;85;21027;-70
2022/04/04 08:51:49;;;;;;;7.00;3.63;;;;;;;6.23;53.08;100222.16;1673569;85;21860;-70
2022/04/04 08:54:16;;;;;;;4.83;3.90;;;;;;;6.34;52.90;100221.92;1673466;84;21554;-71
2022/04/04 08:56:43;;;;;;;5.90;5.30;;;;;;;6.42;53.19;100217.41;1673683;85;21035;-71
2022/04/04 08:59:10;;;;;;;6.13;3.80;;;;;;;6.58;52.67;100212.70;1673771;84;21048;-70
2022/04/04 09:01:37;;;;;;;4.23;3.73;;;;;;;6.60;52.53;100203.97;1673694;85;21554;-71
2022/04/04 09:04:12;;;;;;;5.40;3.70;;;;;;;6.63;52.19;100201.73;1675340;84;21170;-71
2022/04/04 09:06:56;;;;;;;3.83;3.40;;;;;;;6.66;52.06;100199.05;1703284;84;21392;-71
2022/04/04 09:09:26;;;;;;;4.73;3.50;;;;;;;6.75;51.87;100188.85;1703244;84;21038;-70
2022/04/04 09:12:07;;;;;;;5.87;3.60;;;;;;;6.85;51.17;100189.05;1703381;84;21528;-71
2022/04/04 09:14:45;;;;;;;4.08;3.42;;;;;;;6.97;50.91;100187.88;1703634;84;21003;-76
2022/04/04 09:17:14;;;;;;;5.90;3.70;;;;;;;7.00;50.60;100168.24;1703357;84;21972;-71
2022/04/04 09:19:41;;;;;;;6.57;4.30;;;;;;;7.03;50.58;100175.52;1703464;84;21012;-70
2022/04/04 09:22:15;;;;;;;4.90;3.87;;;;;;;7.02;50.16;100172.98;1703346;84;21043;-70
2022/04/04 09:24:59;;;;;;;5.30;3.93;;;;;;;7.03;49.96;100159.89;1703346;84;21058;-71
2022/04/04 09:27:33;;;;;;;5.40;4.00;;;;;;;7.11;49.90;100137.54;1703306;84;21094;-71
2022/04/04 09:30:05;;;;;;;4.77;3.73;;;;;;;7.20;49.56;100149.01;1703405;84;21150;-71
2022/04/04 09:32:46;;;;;;;4.83;4.27;;;;;;;7.41;49.95;100137.60;1703099;84;21034;-72
2022/04/04 09:35:16;;;;;;;5.20;4.50;;;;;;;7.64;49.46;100135.17;1703253;84;21555;-70
2022/04/04 09:37:51;;;;;;;5.05;3.92;;;;;;;7.69;49.11;100124.16;1703431;84;21050;-71
2022/04/04 09:40:21;;;;;;;4.60;4.20;;;;;;;7.74;49.14;100120.12;1703342;84;21003;-70
2022/04/04 09:42:54;;;;;;;;;;;;;;;7.81;48.94;100123.81;1705831;84;21212;-70
2022/04/04 09:45:30;;;;;;;4.97;3.93;;;;;;;7.80;48.36;100095.99;1703358;84;20287;-71
2022/04/04 09:48:07;;;;;;;4.27;3.87;;;;;;;7.93;48.61;100102.16;1703240;84;21031;-71
2022/04/04 09:50:50;;;;;;;7.93;4.20;;;;;;;8.10;48.54;100091.19;1703538;84;21035;-71
2022/04/04 09:53:23;;;;;;;4.90;3.80;;;;;;;8.11;47.55;100100.25;1702938;84;21042;-70
2022/04/04 09:55:55;;;;;;;4.30;3.73;;;;;;;7.96;47.01;100090.31;1703304;84;21140;-71
2022/04/04 09:58:29;;;;;;;4.77;4.37;;;;;;;7.97;47.16;100085.48;1703434;84;20996;-70
2022/04/04 10:01:02;;;;;;;5.10;3.53;;;;;;;7.93;46.33;100077.36;1703609;84;20949;-70
2022/04/04 10:03:31;;;;;;;5.13;4.00;;;;;;;7.89;46.20;100070.06;1703191;84;21044;-70
2022/04/04 10:06:08;;;;;;;7.67;4.40;;;;;;;7.82;46.20;100064.65;1701068;84;21074;-70
2022/04/04 10:08:37;;;;;;;5.73;4.70;;;;;;;7.79;45.84;100076.03;1699940;84;21134;-71
2022/04/04 10:11:08;;;;;;;7.28;4.50;;;;;;;7.92;46.05;100065.20;1700229;84;21035;-73
2022/04/04 10:13:37;;;;;;;6.50;4.20;;;;;;;8.23;45.89;100040.25;1699983;84;21493;-73
2022/04/04 10:16:05;;;;;;;7.07;4.57;;;;;;;8.57;45.04;100050.93;1703755;83;21030;-72
2022/04/04 10:18:35;;;;;;;6.20;4.37;;;;;;;8.61;44.70;100045.53;1709230;83;21536;-73
2022/04/04 10:21:04;;;;;;;6.00;4.70;;;;;;;8.53;45.27;100037.56;1706150;83;21030;-74
2022/04/04 10:23:32;;;;;;;6.77;4.90;;;;;;;8.53;45.33;100032.33;1714892;83;21051;-77
2022/04/04 10:26:00;;;;;;;8.43;5.50;;;;;;;8.53;44.92;100029.27;1705640;83;21480;-75
2022/04/04 10:28:38;;;;;;;8.20;5.40;;;;;;;8.55;44.51;100024.00;1720307;83;21015;-73
2022/04/04 10:31:21;;;;;;;6.07;5.20;;;;;;;8.44;44.60;100023.91;1713144;83;21015;-73
2022/04/04 10:33:53;;;;;;;6.63;5.60;;;;;;;8.19;44.37;100008.19;1697403;84;21135;-74
2022/04/04 10:36:25;;;;;;;6.67;5.47;;;;;;;8.08;44.38;100001.62;1698123;84;21015;-75
2022/04/04 10:38:57;;;;;;;6.47;5.67;;;;;;;8.24;44.57;99998.91;1699960;84;21035;-73
2022/04/04 10:41:30;;;;;;;6.10;5.50;;;;;;;8.38;44.67;99990.14;1700250;84;21019;-73
2022/04/04 10:43:58;;;;;;;6.43;5.80;;;;;;;8.48;44.74;99981.58;1699928;84;21031;-74
2022/04/04 10:46:26;;;;;;;6.30;5.70;;;;;;;8.57;44.50;99969.49;1700169;84;21934;-74
2022/04/04 10:49:04;;;;;;;6.23;5.60;;;;;;;8.74;44.21;99966.27;1699927;84;21528;-75
2022/04/04 10:51:35;;;;;;;6.23;5.53;;;;;;;8.98;43.68;99980.20;1700224;84;21509;-74
2022/04/04 10:54:10;;;;;;;7.20;6.37;;;;;;;8.93;43.21;99989.52;1668328;82;21044;-82
2022/04/04 10:56:46;;;;;;;9.07;7.23;;;;;;;8.86;42.87;99964.50;1668412;86;21516;-73
2022/04/04 10:59:24;;;;;;;8.63;6.00;;;;;;;9.21;42.65;99957.56;1668640;86;21097;-73
2022/04/04 11:01:56;;;;;;;5.90;5.40;;;;;;;9.17;41.33;99939.81;1668689;85;21099;-73
2022/04/04 11:04:33;;;;;;;10.80;5.90;;;;;;;8.98;41.57;99931.84;1668349;86;21031;-74
2022/04/04 11:10:08;;;;;;;6.23;4.63;;;;;;;9.83;41.07;99924.09;1707902;84;21016;-89
2022/04/04 11:13:13;;;;;;;6.77;4.77;;;;;;;10.42;41.58;99937.77;1706758;84;21139;-74
2022/04/04 11:15:56;;;;;;;5.92;4.85;;;;;;;10.93;39.96;99916.67;1645990;87;20963;-73
2022/04/04 11:18:32;;;;;;;6.87;4.95;;;;;;;10.62;38.96;99915.92;1646943;87;21070;-72
2022/04/04 11:20:59;;;;;;;5.67;4.67;;;;;;;10.77;38.47;99909.13;1646774;87;21552;-72
2022/04/04 11:23:34;;;;;;;5.28;4.70;;;;;;;11.01;39.06;99900.59;1647501;87;21105;-70
2022/04/04 11:25:59;;;;;;;5.78;4.12;;;;;;;11.17;38.56;99947.95;1646991;87;22038;-71
2022/04/04 11:28:32;;;;;;;6.75;4.05;;;;;;;11.22;37.00;99891.31;1647327;87;21074;-70
2022/04/04 11:31:10;;;;;;;4.90;4.45;;;;;;;11.34;37.60;99881.55;1642988;87;21096;-71
2022/04/04 11:33:51;;;;;;;5.53;4.20;;;;;;;11.47;35.78;99880.48;1642166;87;21080;-82
2022/04/04 11:36:24;;;;;;;5.70;4.35;;;;;;;11.33;35.98;99869.34;1652575;85;21055;-81
2022/04/04 11:38:57;;;;;;;8.68;4.75;;;;;;;11.05;36.05;99866.73;1620922;88;21126;-74
2022/04/04 11:41:24;;;;;;;4.30;3.90;;;;;;;10.21;35.41;99848.30;1620981;88;21484;-72
2022/04/04 11:43:52;;;;;;;6.15;4.55;;;;;;;10.21;35.41;99848.30;1622386;87;21061;-72
2022/04/04 11:46:20;;;;;;;4.93;4.43;;;;;;;9.75;35.42;99862.06;1640160;85;21147;-72
2022/04/04 11:48:56;;;;;;;5.03;4.27;;;;;;;9.36;36.47;99859.72;1647467;87;21064;-70
2022/04/04 11:51:34;;;;;;;5.97;3.77;;;;;;;9.30;37.04;99851.28;1673144;84;22067;-71